Time;durP1;ratioP1;P1;durP2;ratioP2;P2;SDS_P1;SDS_P2;PMS_P1;PMS_P2;Temp;Humidity;BMP_temperature;BMP_pressure;BME280_temperature;BME280_humidity;BME280_pressure;Samples;Min_cycle;Max_cycle;Signal;HPM_P1;HPM_P2
2022/09/30 00:02:00;;;;;;;11.55;10.45;;;12.00;99.90;;;;;;6126122;23;20210;-81
2022/09/30 00:04:28;;;;;;;10.90;9.82;;;12.00;99.90;;;;;;6135419;23;20284;-78
2022/09/30 00:06:55;;;;;;;9.27;8.38;;;12.00;99.90;;;;;;6156636;23;20202;-81
2022/09/30 00:09:22;;;;;;;9.95;9.05;;;12.00;99.90;;;;;;6157751;23;20501;-80
2022/09/30 00:11:50;;;;;;;8.70;8.00;;;12.00;99.90;;;;;;6156541;23;20222;-80
2022/09/30 00:14:27;;;;;;;10.25;9.25;;;12.00;99.90;;;;;;6157154;23;20229;-78
2022/09/30 00:16:54;;;;;;;10.73;9.48;;;12.00;99.90;;;;;;6155700;23;20202;-77
2022/09/30 00:19:24;;;;;;;9.88;8.50;;;11.90;99.90;;;;;;6156804;23;20314;-77
2022/09/30 00:22:04;;;;;;;9.38;8.48;;;11.90;99.90;;;;;;6156700;23;20206;-78
2022/09/30 00:24:34;;;;;;;9.48;8.65;;;11.90;99.90;;;;;;6157787;23;20232;-79
2022/09/30 00:27:01;;;;;;;10.40;8.80;;;11.90;99.90;;;;;;6157440;23;20504;-80
2022/09/30 00:29:28;;;;;;;10.68;9.63;;;11.80;99.90;;;;;;6156865;23;20205;-78
2022/09/30 00:31:56;;;;;;;10.40;9.55;;;11.80;99.90;;;;;;6157172;23;20281;-80
2022/09/30 00:34:23;;;;;;;13.75;10.73;;;11.80;99.90;;;;;;6157407;23;20650;-80
2022/09/30 00:36:52;;;;;;;10.27;9.32;;;11.80;99.90;;;;;;6156467;23;20494;-80
2022/09/30 00:39:22;;;;;;;9.80;8.90;;;11.80;99.90;;;;;;6156433;23;20653;-78
2022/09/30 00:41:56;;;;;;;9.27;7.78;;;11.80;99.90;;;;;;6156416;23;20206;-77
2022/09/30 00:44:57;;;;;;;9.45;8.52;;;11.80;99.90;;;;;;6157585;23;20194;-77
2022/09/30 00:47:40;;;;;;;8.75;7.75;;;11.70;99.90;;;;;;6158212;23;20193;-79
2022/09/30 00:50:28;;;;;;;8.52;7.72;;;11.70;99.90;;;;;;6158304;23;20685;-80
2022/09/30 00:53:00;;;;;;;10.57;9.60;;;11.70;99.90;;;;;;6149534;23;20201;-77
2022/09/30 00:55:37;;;;;;;10.07;8.68;;;11.60;99.90;;;;;;6157241;23;20205;-80
2022/09/30 00:58:08;;;;;;;9.93;9.00;;;11.60;99.90;;;;;;6159008;23;20212;-77
2022/09/30 01:00:35;;;;;;;10.00;8.52;;;11.60;99.90;;;;;;6158696;23;20226;-77
2022/09/30 01:03:06;;;;;;;10.30;9.40;;;11.60;99.90;;;;;;6161621;23;20214;-80
2022/09/30 01:05:34;;;;;;;9.25;8.25;;;11.50;99.90;;;;;;6162542;23;20194;-80
2022/09/30 01:08:04;;;;;;;8.20;7.50;;;11.50;99.90;;;;;;6164079;23;20274;-81
2022/09/30 01:10:32;;;;;;;8.73;7.93;;;11.50;99.90;;;;;;6164693;23;20252;-78
2022/09/30 01:13:02;;;;;;;8.65;7.80;;;11.50;99.90;;;;;;6162798;23;20210;-78
2022/09/30 01:15:46;;;;;;;9.73;8.82;;;11.50;99.90;;;;;;6163177;23;20202;-77
2022/09/30 01:18:21;;;;;;;8.23;7.38;;;11.50;99.90;;;;;;6165531;23;20206;-80
2022/09/30 01:21:03;;;;;;;9.63;8.65;;;11.50;99.90;;;;;;6162778;23;20229;-80
2022/09/30 01:24:11;;;;;;;7.50;6.85;;;11.50;99.90;;;;;;6164401;23;20214;-82
2022/09/30 01:27:02;;;;;;;8.75;7.95;;;11.50;99.90;;;;;;6136876;23;20194;-80
2022/09/30 01:29:52;;;;;;;8.50;7.70;;;11.40;99.90;;;;;;6168353;23;20214;-80
2022/09/30 01:32:34;;;;;;;8.15;7.35;;;11.40;99.90;;;;;;6162661;23;20237;-79
2022/09/30 01:35:12;;;;;;;7.70;7.00;;;11.50;99.90;;;;;;6126351;23;20195;-81
2022/09/30 01:37:44;;;;;;;7.63;6.93;;;11.40;99.90;;;;;;6161445;23;20205;-81
2022/09/30 01:40:22;;;;;;;8.00;7.20;;;11.40;99.90;;;;;;6166182;23;20202;-81
2022/09/30 01:43:03;;;;;;;7.38;6.75;;;11.50;99.90;;;;;;6165416;23;20221;-80
2022/09/30 01:45:35;;;;;;;7.03;6.53;;;11.50;99.90;;;;;;6167251;23;20202;-80
2022/09/30 01:48:10;;;;;;;8.98;7.95;;;11.50;99.90;;;;;;6168540;23;20198;-79
2022/09/30 01:50:47;;;;;;;6.82;6.22;;;11.40;99.90;;;;;;6167161;23;20198;-79
2022/09/30 01:56:16;;;;;;;7.95;7.00;;;11.40;99.90;;;;;;6168805;23;20276;-79
2022/09/30 01:58:51;;;;;;;7.30;6.60;;;11.40;99.90;;;;;;6163520;23;20202;-79
2022/09/30 02:01:25;;;;;;;6.82;6.22;;;11.40;99.90;;;;;;6157992;23;20310;-80
2022/09/30 02:03:56;;;;;;;10.70;9.60;;;11.40;99.90;;;;;;6157931;23;20303;-80
2022/09/30 02:06:28;;;;;;;12.77;10.95;;;11.40;99.90;;;;;;6155472;23;20487;-80
2022/09/30 02:08:59;;;;;;;10.18;9.18;;;11.40;99.90;;;;;;6157512;23;20206;-80
2022/09/30 02:11:38;;;;;;;9.27;8.38;;;11.30;99.90;;;;;;6156323;23;20198;-80
2022/09/30 02:14:09;;;;;;;7.22;6.53;;;11.40;99.90;;;;;;6142915;23;20202;-78
2022/09/30 02:16:39;;;;;;;7.95;7.25;;;11.30;99.90;;;;;;6156583;23;20212;-77
2022/09/30 02:19:16;;;;;;;8.20;7.40;;;11.30;99.90;;;;;;6155560;23;20222;-80
2022/09/30 02:21:51;;;;;;;7.60;6.90;;;11.30;99.90;;;;;;6156541;23;20716;-80
2022/09/30 02:24:27;;;;;;;6.57;5.97;;;11.30;99.90;;;;;;6135081;23;20252;-80
2022/09/30 02:26:58;;;;;;;7.80;7.03;;;11.30;99.90;;;;;;6135882;23;20201;-77
2022/09/30 02:29:29;;;;;;;7.47;6.78;;;11.30;99.90;;;;;;6155409;23;20226;-77
2022/09/30 02:32:10;;;;;;;7.40;6.70;;;11.20;99.90;;;;;;6149574;23;20236;-81
2022/09/30 02:34:40;;;;;;;7.95;7.20;;;11.30;99.90;;;;;;6156221;23;20649;-78
2022/09/30 02:37:13;;;;;;;8.30;7.55;;;11.20;99.90;;;;;;6154430;23;20285;-80
2022/09/30 02:39:46;;;;;;;8.80;7.60;;;11.20;99.90;;;;;;6156699;23;20202;-77
2022/09/30 02:42:19;;;;;;;6.70;6.20;;;11.20;99.90;;;;;;6155185;23;20205;-80
2022/09/30 02:44:46;;;;;;;6.85;6.15;;;11.20;99.90;;;;;;6155878;23;20272;-78
2022/09/30 02:47:18;;;;;;;8.50;7.05;;;11.20;99.90;;;;;;6155759;23;20213;-80
2022/09/30 02:49:53;;;;;;;7.47;6.78;;;11.20;99.90;;;;;;6154597;23;20199;-80
2022/09/30 02:55:19;;;;;;;9.15;7.95;;;11.20;99.90;;;;;;6155573;23;20693;-80
2022/09/30 02:57:58;;;;;;;9.55;6.60;;;11.20;99.90;;;;;;6155833;23;20252;-80
2022/09/30 03:00:25;;;;;;;7.72;6.95;;;11.30;99.90;;;;;;6155584;23;20248;-80
2022/09/30 03:02:58;;;;;;;8.00;7.40;;;11.20;99.90;;;;;;6155636;23;20214;-78
2022/09/30 03:05:47;;;;;;;7.90;7.30;;;11.30;99.90;;;;;;6151090;23;20208;-78
2022/09/30 03:08:14;;;;;;;10.75;9.75;;;11.30;99.90;;;;;;6154480;23;20233;-81
2022/09/30 03:10:42;;;;;;;8.63;7.68;;;11.20;99.90;;;;;;6155543;23;20689;-81
2022/09/30 03:13:46;;;;;;;8.95;8.25;;;11.20;99.90;;;;;;6155214;23;20285;-79
2022/09/30 03:16:19;;;;;;;7.95;7.15;;;11.20;99.90;;;;;;6155460;23;20213;-77
2022/09/30 03:19:04;;;;;;;8.75;7.35;;;11.20;99.90;;;;;;6155647;23;20202;-79
2022/09/30 03:21:48;;;;;;;7.90;7.20;;;11.20;99.90;;;;;;6155878;23;20198;-77
2022/09/30 03:24:30;;;;;;;7.43;6.82;;;11.20;99.90;;;;;;6155227;23;20504;-77
2022/09/30 03:27:07;;;;;;;8.40;7.60;;;11.20;99.90;;;;;;6155822;23;20212;-77
2022/09/30 03:29:44;;;;;;;8.55;7.75;;;11.20;99.90;;;;;;6155545;23;20206;-80
2022/09/30 03:32:34;;;;;;;7.97;7.25;;;11.20;99.90;;;;;;6148929;23;20277;-80
2022/09/30 03:35:10;;;;;;;8.50;7.70;;;11.20;99.90;;;;;;6155105;23;20194;-78
2022/09/30 03:37:46;;;;;;;8.43;7.60;;;11.20;99.90;;;;;;6155900;23;20198;-81
2022/09/30 03:40:23;;;;;;;8.25;6.82;;;11.20;99.90;;;;;;6156060;23;20198;-81
2022/09/30 03:42:56;;;;;;;8.18;7.38;;;11.20;99.90;;;;;;6156676;23;20241;-78
2022/09/30 03:45:28;;;;;;;8.45;7.65;;;11.10;99.90;;;;;;6155378;23;20197;-78
2022/09/30 03:48:01;;;;;;;8.93;7.55;;;11.10;99.90;;;;;;6155357;23;20202;-80
2022/09/30 03:50:31;;;;;;;8.60;7.80;;;11.10;99.90;;;;;;6155619;23;20273;-80
2022/09/30 03:52:59;;;;;;;9.63;8.57;;;11.10;99.90;;;;;;6156206;23;20206;-78
2022/09/30 03:58:23;;;;;;;7.95;7.15;;;11.00;99.90;;;;;;6152165;23;20206;-80
2022/09/30 04:00:53;;;;;;;8.40;6.47;;;11.00;99.90;;;;;;6157049;23;20261;-78
2022/09/30 04:03:22;;;;;;;8.48;7.68;;;11.00;99.90;;;;;;6155034;23;20510;-81
2022/09/30 04:05:49;;;;;;;7.05;6.45;;;10.90;99.90;;;;;;6155691;23;20531;-81
2022/09/30 04:08:18;;;;;;;8.90;7.75;;;10.90;99.90;;;;;;6156156;23;20265;-80
2022/09/30 04:10:46;;;;;;;8.10;6.80;;;10.90;99.90;;;;;;6155705;23;20222;-80
2022/09/30 04:13:13;;;;;;;7.40;6.75;;;10.90;99.90;;;;;;6154949;23;20514;-80
2022/09/30 04:15:41;;;;;;;9.85;7.63;;;10.90;99.90;;;;;;6155860;23;20198;-80
2022/09/30 04:18:11;;;;;;;7.40;6.63;;;10.90;99.90;;;;;;6153904;23;20249;-79
2022/09/30 04:20:44;;;;;;;7.60;6.85;;;10.90;99.90;;;;;;6157370;23;20229;-80
2022/09/30 04:23:11;;;;;;;8.73;7.90;;;10.90;99.90;;;;;;6157029;23;20230;-77
2022/09/30 04:25:39;;;;;;;8.75;7.95;;;10.90;99.90;;;;;;6133655;23;20254;-80
2022/09/30 04:28:06;;;;;;;7.72;7.05;;;10.90;99.90;;;;;;6139063;23;20257;-78
2022/09/30 04:30:33;;;;;;;9.15;8.32;;;10.90;99.90;;;;;;6156093;23;20210;-78
2022/09/30 04:33:00;;;;;;;8.05;7.35;;;10.90;99.90;;;;;;6156890;23;20229;-78
2022/09/30 04:35:28;;;;;;;7.10;6.50;;;10.90;99.90;;;;;;6156003;23;20202;-78
2022/09/30 04:37:57;;;;;;;8.60;7.43;;;10.90;99.90;;;;;;6157051;23;20619;-81
2022/09/30 04:40:25;;;;;;;8.52;7.72;;;10.90;99.90;;;;;;6155591;23;20194;-80
2022/09/30 04:42:57;;;;;;;7.60;6.90;;;10.80;99.90;;;;;;6157171;23;20206;-81
2022/09/30 04:45:24;;;;;;;7.80;7.05;;;10.80;99.90;;;;;;6156339;23;20277;-80
2022/09/30 04:47:51;;;;;;;8.32;7.13;;;10.90;99.90;;;;;;6157373;23;20240;-78
2022/09/30 04:50:18;;;;;;;8.32;7.53;;;10.90;99.90;;;;;;6155723;23;20197;-80
2022/09/30 04:52:45;;;;;;;8.23;7.40;;;10.80;99.90;;;;;;6155890;23;20198;-80
2022/09/30 04:55:12;;;;;;;8.95;8.05;;;10.90;99.90;;;;;;6157943;23;20212;-80
2022/09/30 04:57:39;;;;;;;8.93;8.02;;;10.80;99.90;;;;;;6156559;23;20198;-80
2022/09/30 05:00:10;;;;;;;9.85;7.93;;;10.80;99.90;;;;;;6157354;23;20225;-80
2022/09/30 05:02:37;;;;;;;8.68;7.72;;;10.90;99.90;;;;;;6155825;23;20210;-80
2022/09/30 05:05:21;;;;;;;9.48;7.43;;;10.90;99.90;;;;;;6157136;23;20257;-81
2022/09/30 05:08:02;;;;;;;;;;;;;;;;;;;;;
2022/09/30 05:10:30;;;;;;;7.60;6.82;;;10.90;99.90;;;;;;6149748;23;20285;-81
2022/09/30 05:12:58;;;;;;;8.02;7.22;;;10.90;99.90;;;;;;6155709;23;20206;-79
2022/09/30 05:15:26;;;;;;;8.02;7.28;;;10.90;99.90;;;;;;6156847;23;20194;-80
2022/09/30 05:17:54;;;;;;;8.88;7.80;;;10.90;99.90;;;;;;6155229;23;20237;-81
2022/09/30 05:20:21;;;;;;;16.65;12.95;;;10.90;99.90;;;;;;6157889;23;20198;-81
2022/09/30 05:22:53;;;;;;;12.00;10.40;;;10.90;99.90;;;;;;6156011;23;20670;-81
2022/09/30 05:25:23;;;;;;;15.15;9.10;;;10.90;99.90;;;;;;6156731;23;20261;-80
2022/09/30 05:27:51;;;;;;;10.23;8.63;;;10.90;99.90;;;;;;6141259;23;20622;-77
2022/09/30 05:30:18;;;;;;;8.30;7.60;;;10.80;99.90;;;;;;6155822;23;20221;-78
2022/09/30 05:32:47;;;;;;;8.63;7.75;;;10.90;99.90;;;;;;6156100;23;20202;-81
2022/09/30 05:35:14;;;;;;;12.80;9.38;;;10.90;99.90;;;;;;6156872;23;20541;-80
2022/09/30 05:37:41;;;;;;;11.45;10.32;;;10.90;99.90;;;;;;6157803;23;20237;-78
2022/09/30 05:40:10;;;;;;;9.82;8.82;;;10.90;99.90;;;;;;6156063;23;20202;-78
2022/09/30 05:42:37;;;;;;;8.70;7.85;;;10.90;99.90;;;;;;6156886;23;20289;-80
2022/09/30 05:45:06;;;;;;;12.85;11.50;;;10.90;99.90;;;;;;6157007;23;20269;-80
2022/09/30 05:47:33;;;;;;;15.63;12.25;;;11.00;99.90;;;;;;6158150;23;20210;-79
2022/09/30 05:50:01;;;;;;;20.52;16.10;;;10.90;99.90;;;;;;6155086;23;20198;-80
2022/09/30 05:52:29;;;;;;;24.23;19.98;;;11.00;99.90;;;;;;6159011;23;20201;-80
2022/09/30 05:57:58;;;;;;;20.65;16.77;;;11.00;99.90;;;;;;6142515;23;20228;-77
2022/09/30 06:00:25;;;;;;;20.90;15.40;;;11.00;99.90;;;;;;6157094;23;20276;-77
2022/09/30 06:02:52;;;;;;;15.13;13.55;;;11.00;99.90;;;;;;6156076;23;20622;-77
2022/09/30 06:05:21;;;;;;;14.35;10.07;;;11.10;99.90;;;;;;6157430;23;20194;-79
2022/09/30 06:07:49;;;;;;;11.68;9.70;;;11.10;99.90;;;;;;6156155;23;20207;-77
2022/09/30 06:10:16;;;;;;;12.75;9.15;;;11.10;99.90;;;;;;6156708;23;20265;-77
2022/09/30 06:12:43;;;;;;;11.07;9.73;;;11.10;99.90;;;;;;6159017;23;20229;-80
2022/09/30 06:15:10;;;;;;;10.77;9.30;;;11.20;99.90;;;;;;6161745;23;20198;-78
2022/09/30 06:17:41;;;;;;;12.57;9.93;;;11.20;99.90;;;;;;6157670;23;20634;-78
2022/09/30 06:20:09;;;;;;;12.32;10.02;;;11.20;99.90;;;;;;6156993;23;20619;-78
2022/09/30 06:22:55;;;;;;;10.85;9.27;;;11.20;99.90;;;;;;6114864;23;20202;-77
2022/09/30 06:25:23;;;;;;;13.82;10.00;;;11.20;99.90;;;;;;6156010;23;20194;-77
2022/09/30 06:27:50;;;;;;;12.48;9.90;;;11.20;99.90;;;;;;6158201;23;20650;-79
2022/09/30 06:30:17;;;;;;;9.45;8.45;;;11.20;99.90;;;;;;6156470;23;20475;-77
2022/09/30 06:32:45;;;;;;;11.15;9.18;;;11.20;99.90;;;;;;6164322;23;20210;-80
2022/09/30 06:35:12;;;;;;;10.77;9.70;;;11.30;99.90;;;;;;6169494;23;20202;-80
2022/09/30 06:37:40;;;;;;;9.50;8.50;;;11.30;99.90;;;;;;6167499;23;20198;-80
2022/09/30 06:40:10;;;;;;;9.65;8.43;;;11.40;99.90;;;;;;6167906;23;20198;-78
2022/09/30 06:42:37;;;;;;;9.27;7.63;;;11.40;99.90;;;;;;6169488;23;20206;-77
2022/09/30 06:45:10;;;;;;;9.10;7.70;;;11.50;99.90;;;;;;6166862;23;20349;-79
2022/09/30 06:47:37;;;;;;;9.85;8.70;;;11.50;99.90;;;;;;6162676;23;20217;-78
2022/09/30 06:50:05;;;;;;;8.70;7.95;;;11.50;99.90;;;;;;6161826;23;20257;-78
2022/09/30 06:52:32;;;;;;;8.57;7.68;;;11.60;99.90;;;;;;6161658;23;20210;-78
2022/09/30 06:54:59;;;;;;;10.18;9.18;;;11.60;99.90;;;;;;6162173;23;20194;-78
2022/09/30 06:57:27;;;;;;;9.50;8.45;;;11.70;99.90;;;;;;6133693;23;20198;-78
2022/09/30 06:59:55;;;;;;;11.35;8.70;;;11.70;99.90;;;;;;6148230;23;20697;-78
2022/09/30 07:02:22;;;;;;;8.52;7.80;;;11.70;99.90;;;;;;6159298;23;20233;-77
2022/09/30 07:04:52;;;;;;;9.65;8.75;;;11.80;99.90;;;;;;6164681;23;20268;-78
2022/09/30 07:07:21;;;;;;;9.70;8.80;;;11.90;99.90;;;;;;6163939;23;20194;-78
2022/09/30 07:09:48;;;;;;;9.93;8.95;;;11.90;99.90;;;;;;6168465;23;20229;-80
2022/09/30 07:12:16;;;;;;;8.43;7.72;;;12.00;99.90;;;;;;6171223;23;20225;-80
2022/09/30 07:14:44;;;;;;;10.68;8.55;;;12.10;99.90;;;;;;6170202;23;20213;-80
2022/09/30 07:17:13;;;;;;;11.38;9.10;;;12.10;99.90;;;;;;6170403;23;20208;-80
2022/09/30 07:19:51;;;;;;;8.18;7.45;;;12.10;99.90;;;;;;6166332;23;20206;-79
2022/09/30 07:22:28;;;;;;;8.65;7.60;;;12.20;99.90;;;;;;6163414;23;20209;-80
2022/09/30 07:24:56;;;;;;;10.07;8.95;;;12.30;99.90;;;;;;6157695;23;20217;-80
2022/09/30 07:27:24;;;;;;;10.57;8.50;;;12.30;99.90;;;;;;6144345;23;20197;-78
2022/09/30 07:29:55;;;;;;;13.05;10.55;;;12.40;99.90;;;;;;6155494;23;20269;-77
2022/09/30 07:32:23;;;;;;;11.95;9.43;;;12.40;99.90;;;;;;6155799;23;20237;-78
2022/09/30 07:34:50;;;;;;;11.00;9.90;;;12.50;99.90;;;;;;6155250;23;20206;-78
2022/09/30 07:37:29;;;;;;;10.98;9.75;;;12.60;99.90;;;;;;6155845;23;20237;-77
2022/09/30 07:39:56;;;;;;;10.23;9.20;;;12.60;99.90;;;;;;6155285;23;20210;-78
2022/09/30 07:42:25;;;;;;;11.35;10.15;;;12.60;99.90;;;;;;6154666;23;20684;-77
2022/09/30 07:44:56;;;;;;;17.13;12.25;;;12.70;99.90;;;;;;6154763;23;20213;-80
2022/09/30 07:47:23;;;;;;;12.50;10.82;;;12.70;99.90;;;;;;6155821;23;20197;-80
2022/09/30 07:49:51;;;;;;;10.73;9.63;;;12.80;99.90;;;;;;6156020;23;20198;-79
2022/09/30 07:52:41;;;;;;;12.90;10.40;;;12.90;99.90;;;;;;6156000;23;20202;-80
2022/09/30 07:55:18;;;;;;;11.30;10.20;;;12.90;99.90;;;;;;6152543;23;20194;-80
2022/09/30 07:57:45;;;;;;;13.95;12.20;;;13.00;99.90;;;;;;6157290;23;20201;-80
2022/09/30 08:00:14;;;;;;;13.13;11.88;;;13.00;99.90;;;;;;6156436;23;20202;-80
2022/09/30 08:02:41;;;;;;;14.52;9.77;;;13.10;99.90;;;;;;6156726;23;20261;-80
2022/09/30 08:05:14;;;;;;;11.80;9.70;;;13.20;99.90;;;;;;6144452;23;20650;-80
2022/09/30 08:07:41;;;;;;;17.40;13.60;;;13.20;99.90;;;;;;6156821;23;20251;-80
2022/09/30 08:10:09;;;;;;;12.32;11.00;;;13.30;99.90;;;;;;6157609;23;20206;-79
2022/09/30 08:12:37;;;;;;;11.45;9.75;;;13.30;99.90;;;;;;6157152;23;20666;-76
2022/09/30 08:15:08;;;;;;;10.45;9.35;;;13.40;99.90;;;;;;6156884;23;20721;-76
2022/09/30 08:17:37;;;;;;;13.55;12.20;;;13.50;99.90;;;;;;6141714;23;20661;-77
2022/09/30 08:20:05;;;;;;;18.23;16.10;;;13.50;99.90;;;;;;6157302;23;20277;-79
2022/09/30 08:22:32;;;;;;;20.45;14.80;;;13.60;99.90;;;;;;6156291;23;20554;-79
2022/09/30 08:24:59;;;;;;;14.70;13.07;;;13.60;99.90;;;;;;6156832;23;20194;-80
2022/09/30 08:27:31;;;;;;;12.00;10.68;;;13.70;99.90;;;;;;6157327;23;20209;-80
2022/09/30 08:29:58;;;;;;;11.90;10.65;;;13.80;99.90;;;;;;6156965;23;20205;-77
2022/09/30 08:32:25;;;;;;;12.00;10.88;;;13.80;99.90;;;;;;6142285;23;20278;-77
2022/09/30 08:37:49;;;;;;;14.00;12.30;;;13.90;99.90;;;;;;6154440;23;20201;-77
2022/09/30 08:40:20;;;;;;;13.27;11.00;;;13.90;99.90;;;;;;6157850;23;20510;-77
2022/09/30 08:43:08;;;;;;;11.57;10.57;;;14.00;99.90;;;;;;6155497;23;20218;-78
2022/09/30 08:45:41;;;;;;;11.30;10.13;;;14.10;99.90;;;;;;6157156;23;20678;-77
2022/09/30 08:48:24;;;;;;;13.40;11.90;;;14.20;99.90;;;;;;6156737;23;20571;-78
2022/09/30 08:51:01;;;;;;;10.82;9.75;;;14.20;99.90;;;;;;6155920;23;20213;-79
2022/09/30 08:53:31;;;;;;;10.48;9.02;;;14.30;99.90;;;;;;6156588;23;20277;-78
2022/09/30 08:58:45;;;;;;;11.93;10.32;;;14.50;99.90;;;;;;6138632;23;20318;-78
2022/09/30 09:01:20;;;;;;;11.73;10.30;;;14.60;99.90;;;;;;6156685;23;20261;-78
2022/09/30 09:03:47;;;;;;;12.07;10.85;;;14.70;99.90;;;;;;6156892;23;20495;-78
2022/09/30 09:06:24;;;;;;;9.65;8.73;;;14.70;99.90;;;;;;6156421;23;20583;-78
2022/09/30 09:09:20;;;;;;;10.82;9.30;;;14.80;99.90;;;;;;6156393;23;20198;-78
2022/09/30 09:12:03;;;;;;;11.15;10.02;;;14.90;99.90;;;;;;6156284;23;20492;-78
2022/09/30 09:14:44;;;;;;;10.30;9.23;;;14.90;99.90;;;;;;6156968;23;20193;-77
2022/09/30 09:17:20;;;;;;;11.45;10.13;;;15.00;99.90;;;;;;6157868;23;20500;-78
2022/09/30 09:19:53;;;;;;;9.57;8.67;;;15.10;99.90;;;;;;6157476;23;20213;-78
2022/09/30 09:22:22;;;;;;;11.80;10.57;;;15.10;99.90;;;;;;6155449;23;20525;-78
2022/09/30 09:24:52;;;;;;;12.93;11.53;;;15.20;99.90;;;;;;6156943;23;20681;-78
2022/09/30 09:27:23;;;;;;;9.87;8.87;;;15.20;99.90;;;;;;6156282;23;20441;-78
2022/09/30 09:30:00;;;;;;;12.83;10.37;;;15.30;99.90;;;;;;6156558;23;20449;-80
2022/09/30 09:32:28;;;;;;;12.87;10.57;;;15.30;99.90;;;;;;6156147;23;20509;-81
2022/09/30 09:35:01;;;;;;;10.90;9.80;;;15.30;99.90;;;;;;6157193;23;20441;-80
2022/09/30 09:40:39;;;;;;;9.43;8.50;;;15.50;99.90;;;;;;6156140;23;20484;-81
2022/09/30 09:43:20;;;;;;;10.50;9.50;;;15.50;99.90;;;;;;6155838;23;20933;-77
2022/09/30 09:45:55;;;;;;;10.60;9.70;;;15.40;99.90;;;;;;6156528;23;20492;-78
2022/09/30 09:48:22;;;;;;;8.77;8.03;;;15.50;99.90;;;;;;6155117;23;20721;-78
2022/09/30 09:50:58;;;;;;;9.97;9.00;;;15.50;99.90;;;;;;6155296;23;20476;-77
2022/09/30 09:53:48;;;;;;;9.60;8.60;;;15.70;99.90;;;;;;6155972;23;20458;-79
2022/09/30 09:56:22;;;;;;;7.73;6.90;;;15.70;99.90;;;;;;6155834;23;20472;-79
2022/09/30 09:59:07;;;;;;;8.93;7.90;;;15.80;99.90;;;;;;6131807;23;20510;-79
2022/09/30 10:01:41;;;;;;;8.43;7.63;;;15.90;99.90;;;;;;6147788;23;20803;-79
2022/09/30 10:04:11;;;;;;;12.63;11.43;;;15.90;99.90;;;;;;6156892;23;20743;-76
2022/09/30 10:06:47;;;;;;;13.97;9.37;;;16.00;99.90;;;;;;6156563;23;20489;-77
2022/09/30 10:09:37;;;;;;;8.10;7.27;;;16.00;99.90;;;;;;6154860;23;20440;-77
2022/09/30 10:12:34;;;;;;;7.50;6.80;;;16.10;99.90;;;;;;6156814;23;20465;-79
2022/09/30 10:15:18;;;;;;;7.03;6.43;;;16.10;99.90;;;;;;6039509;23;20464;-79
2022/09/30 10:17:52;;;;;;;8.10;6.13;;;16.20;99.90;;;;;;6142820;23;20429;-79
2022/09/30 10:20:27;;;;;;;7.33;6.67;;;16.20;99.90;;;;;;6136379;23;20439;-77
2022/09/30 10:23:03;;;;;;;8.10;7.40;;;16.20;99.90;;;;;;6139045;23;20441;-80
2022/09/30 10:25:31;;;;;;;5.53;5.00;;;16.30;99.90;;;;;;6156172;23;20710;-77
2022/09/30 10:28:00;;;;;;;5.50;5.10;;;16.30;99.90;;;;;;6156512;23;20746;-77
2022/09/30 10:30:38;;;;;;;10.67;8.13;;;16.40;99.90;;;;;;6155579;23;20433;-77
2022/09/30 10:33:14;;;;;;;7.30;6.60;;;16.40;99.90;;;;;;6156730;23;20513;-76
2022/09/30 10:35:59;;;;;;;7.20;6.50;;;16.50;99.90;;;;;;6158108;23;20434;-79
2022/09/30 10:38:28;;;;;;;7.57;6.87;;;16.50;99.90;;;;;;6157576;23;20444;-79
2022/09/30 10:40:57;;;;;;;6.93;6.10;;;16.60;99.90;;;;;;6155268;23;20749;-79
2022/09/30 10:43:28;;;;;;;6.53;5.93;;;16.60;99.90;;;;;;6157017;23;20554;-79
2022/09/30 10:46:02;;;;;;;6.17;5.63;;;16.60;99.90;;;;;;6155372;23;20431;-79
2022/09/30 10:48:56;;;;;;;6.03;5.53;;;16.60;99.90;;;;;;6156664;23;20896;-80
2022/09/30 10:51:26;;;;;;;5.20;4.70;;;16.70;99.90;;;;;;6156266;23;20489;-80
2022/09/30 10:53:54;;;;;;;6.73;5.07;;;16.70;99.90;;;;;;6156508;23;20423;-80
2022/09/30 10:56:44;;;;;;;5.80;4.67;;;16.70;99.90;;;;;;6155463;23;20430;-80
2022/09/30 10:59:27;;;;;;;5.43;4.97;;;16.80;99.90;;;;;;6156513;23;20434;-80
2022/09/30 11:01:59;;;;;;;5.87;4.53;;;16.80;99.90;;;;;;6156408;23;20468;-77
2022/09/30 11:04:34;;;;;;;4.47;4.07;;;16.90;99.90;;;;;;6155060;23;20464;-77
2022/09/30 11:07:13;;;;;;;3.83;3.60;;;16.90;99.90;;;;;;6155736;23;20444;-78
2022/09/30 11:09:48;;;;;;;4.57;3.60;;;17.00;99.90;;;;;;6156310;23;20439;-81
2022/09/30 11:12:22;;;;;;;6.23;5.20;;;17.00;99.90;;;;;;6155520;23;20421;-80
2022/09/30 11:14:57;;;;;;;5.53;4.43;;;17.00;99.90;;;;;;6156257;23;20434;-80
2022/09/30 11:17:33;;;;;;;5.37;4.87;;;17.00;99.90;;;;;;6154369;23;20446;-80
2022/09/30 11:20:12;;;;;;;3.73;3.40;;;17.00;99.90;;;;;;6155489;23;20903;-80
2022/09/30 11:22:49;;;;;;;7.07;6.40;;;17.10;99.90;;;;;;6156801;23;20441;-80
2022/09/30 11:25:24;;;;;;;5.30;4.67;;;17.10;99.90;;;;;;6156589;23;20449;-77
2022/09/30 11:28:05;;;;;;;3.73;3.43;;;17.10;99.90;;;;;;6155874;23;20718;-78
2022/09/30 11:30:40;;;;;;;4.53;4.13;;;17.10;99.80;;;;;;6158223;23;20510;-81
2022/09/30 11:33:24;;;;;;;4.30;3.90;;;17.20;99.90;;;;;;6157789;23;20461;-78
2022/09/30 11:35:57;;;;;;;4.23;3.83;;;17.20;99.80;;;;;;6157994;23;20462;-81
2022/09/30 11:38:48;;;;;;;4.27;3.70;;;17.30;99.80;;;;;;6158663;23;20434;-81
2022/09/30 11:41:24;;;;;;;4.10;3.70;;;17.40;99.80;;;;;;6156666;23;20903;-81
2022/09/30 11:44:08;;;;;;;4.10;3.80;;;17.30;99.60;;;;;;6129626;23;20542;-80
2022/09/30 11:53:44;;;;;;;6.47;4.40;;;17.40;98.90;;;;;;6031658;23;20435;-76
2022/09/30 11:56:26;;;;;;;3.73;3.43;;;17.50;99.00;;;;;;6156641;23;20431;-77
2022/09/30 11:59:00;;;;;;;3.70;3.10;;;17.60;99.20;;;;;;6157500;23;20431;-77
2022/09/30 12:01:32;;;;;;;4.37;3.97;;;17.60;99.10;;;;;;6156782;23;20440;-77
2022/09/30 12:04:06;;;;;;;4.07;3.70;;;17.60;99.10;;;;;;6158108;23;20897;-79
2022/09/30 12:06:45;;;;;;;4.60;4.20;;;17.70;98.90;;;;;;6126929;23;20451;-80
2022/09/30 12:09:19;;;;;;;3.30;3.10;;;17.70;98.70;;;;;;6126838;23;20903;-80
2022/09/30 12:11:52;;;;;;;5.60;4.53;;;17.70;98.70;;;;;;6148527;23;20436;-80
2022/09/30 12:14:27;;;;;;;4.40;4.00;;;17.70;98.80;;;;;;6160953;23;20508;-80
2022/09/30 12:16:56;;;;;;;4.83;3.40;;;17.70;98.70;;;;;;6164268;23;20703;-81
2022/09/30 12:19:31;;;;;;;3.13;2.83;;;17.70;98.50;;;;;;6172088;23;20435;-79
2022/09/30 12:22:04;;;;;;;2.07;1.90;;;17.70;97.90;;;;;;6175889;23;20424;-79
2022/09/30 12:24:35;;;;;;;2.90;2.30;;;17.70;97.70;;;;;;6178554;23;20430;-80
2022/09/30 12:27:04;;;;;;;2.20;2.00;;;17.70;97.40;;;;;;6176777;23;20487;-80
2022/09/30 12:33:12;;;;;;;1.90;1.80;;;17.70;97.80;;;;;;6173785;23;20467;-79
2022/09/30 12:36:07;;;;;;;2.70;2.50;;;17.70;97.10;;;;;;6131133;23;20442;-77
2022/09/30 12:39:00;;;;;;;3.57;3.27;;;17.70;97.10;;;;;;6144554;23;20436;-77
2022/09/30 12:41:42;;;;;;;3.70;3.27;;;17.70;97.20;;;;;;6170953;23;20442;-80
2022/09/30 12:44:50;;;;;;;2.27;2.07;;;17.70;97.00;;;;;;6171581;23;20457;-80
2022/09/30 12:47:33;;;;;;;2.80;2.13;;;17.70;96.80;;;;;;6158737;23;20435;-81
2022/09/30 12:50:05;;;;;;;2.73;2.00;;;17.70;96.60;;;;;;6164188;23;20442;-78
2022/09/30 12:55:29;;;;;;;6.67;5.87;;;17.70;96.30;;;;;;6157456;23;20428;-81
2022/09/30 12:57:59;;;;;;;6.47;5.30;;;17.70;95.70;;;;;;6159422;23;20466;-81
2022/09/30 13:00:29;;;;;;;4.17;3.87;;;17.70;95.80;;;;;;6157081;23;20443;-78
2022/09/30 13:03:04;;;;;;;4.33;4.03;;;17.70;95.70;;;;;;6158803;23;20515;-81
2022/09/30 13:05:55;;;;;;;3.43;3.13;;;17.70;95.70;;;;;;6156741;23;20461;-81
2022/09/30 13:08:44;;;;;;;3.47;3.17;;;17.70;95.70;;;;;;6158197;23;20472;-81
2022/09/30 13:11:35;;;;;;;3.90;2.97;;;17.70;95.40;;;;;;6142532;23;20441;-80
2022/09/30 13:14:30;;;;;;;5.30;4.80;;;17.70;95.50;;;;;;6158987;23;20512;-81
2022/09/30 13:17:04;;;;;;;5.77;5.20;;;17.70;95.60;;;;;;6159345;23;20532;-79
2022/09/30 13:19:35;;;;;;;3.73;3.40;;;17.70;95.70;;;;;;6159758;23;20468;-79
2022/09/30 13:22:51;;;;;;;2.20;2.00;;;17.70;95.70;;;;;;6157742;23;20736;-79
2022/09/30 13:25:30;;;;;;;1.60;1.50;;;17.70;95.20;;;;;;6159052;23;20427;-80
2022/09/30 13:28:30;;;;;;;2.30;1.87;;;17.70;95.10;;;;;;6120044;23;20505;-81
2022/09/30 13:31:17;;;;;;;5.27;2.80;;;17.80;95.10;;;;;;6138949;23;20433;-78
2022/09/30 13:33:47;;;;;;;3.33;3.07;;;17.80;95.00;;;;;;6158815;23;20424;-77
2022/09/30 13:36:33;;;;;;;2.30;2.10;;;17.80;94.90;;;;;;6158970;23;20453;-78
2022/09/30 13:39:24;;;;;;;3.07;2.43;;;17.80;94.90;;;;;;6160576;23;20443;-80
2022/09/30 13:42:11;;;;;;;4.00;2.10;;;17.80;95.00;;;;;;6153876;23;20434;-80
2022/09/30 13:44:53;;;;;;;2.27;2.13;;;17.80;95.00;;;;;;6160389;23;20911;-80
2022/09/30 13:47:29;;;;;;;5.37;4.30;;;17.90;95.10;;;;;;6159901;23;20445;-79
2022/09/30 13:50:02;;;;;;;3.60;3.10;;;17.90;95.30;;;;;;6156450;23;20441;-79
2022/09/30 13:52:34;;;;;;;4.37;2.90;;;17.90;95.30;;;;;;6159837;23;20444;-80